createdAt,value
2022-12-22T00:01:55.508Z,3.83
2022-12-22T00:04:41.760Z,6.35
2022-12-22T00:07:27.498Z,4.07
2022-12-22T00:10:13.035Z,2.28
2022-12-22T00:12:59.636Z,2.47
2022-12-22T00:15:47.040Z,2.60
2022-12-22T00:18:35.727Z,1.90
2022-12-22T00:21:21.254Z,2.90
2022-12-22T00:24:06.627Z,4.22
2022-12-22T00:26:54.172Z,1.92
2022-12-22T00:29:40.669Z,1.75
2022-12-22T00:32:32.583Z,3.65
2022-12-22T00:35:18.656Z,2.05
2022-12-22T00:38:04.239Z,1.52
2022-12-22T00:40:49.623Z,0.95
2022-12-22T00:43:35.216Z,4.40
2022-12-22T00:46:22.341Z,3.70
2022-12-22T00:49:08.942Z,2.10
2022-12-22T00:51:54.402Z,2.03
2022-12-22T00:54:41.833Z,1.65
2022-12-22T00:57:34.921Z,2.53
2022-12-22T01:00:20.759Z,3.13
2022-12-22T01:03:06.242Z,2.75
2022-12-22T01:05:51.683Z,2.58
2022-12-22T01:12:41.925Z,1.55
2022-12-22T01:15:38.941Z,3.00
2022-12-22T01:18:24.992Z,1.50
2022-12-22T01:21:11.551Z,1.27
2022-12-22T01:23:58.545Z,3.38
2022-12-22T01:26:44.511Z,2.83
2022-12-22T01:29:30.019Z,2.25
2022-12-22T01:32:15.581Z,2.13
2022-12-22T01:35:00.953Z,1.20
2022-12-22T01:37:46.334Z,0.75
2022-12-22T01:40:41.867Z,4.70
2022-12-22T01:43:46.626Z,1.67
2022-12-22T01:46:47.040Z,1.90
2022-12-22T01:49:44.500Z,1.17
2022-12-22T01:52:33.599Z,2.35
2022-12-22T01:55:24.241Z,1.95
2022-12-22T01:58:09.769Z,1.88
2022-12-22T02:00:55.233Z,1.40
2022-12-22T02:03:41.762Z,2.78
2022-12-22T02:06:59.543Z,0.70
2022-12-22T02:10:10.719Z,1.42
2022-12-22T02:13:14.587Z,4.60
2022-12-22T02:16:18.480Z,3.67
2022-12-22T02:19:26.997Z,0.90
2022-12-22T02:22:40.349Z,2.08
2022-12-22T02:25:35.433Z,1.02
2022-12-22T02:28:22.991Z,3.83
2022-12-22T02:31:10.240Z,0.80
2022-12-22T02:33:55.860Z,1.27
2022-12-22T02:37:04.591Z,1.15
2022-12-22T02:40:03.564Z,2.67
2022-12-22T02:43:27.838Z,2.95
2022-12-22T02:46:32.486Z,1.95
2022-12-22T02:49:40.654Z,1.92
2022-12-22T02:52:42.938Z,3.88
2022-12-22T02:55:29.295Z,2.63
2022-12-22T02:58:18.198Z,2.50
2022-12-22T03:01:03.578Z,3.28
2022-12-22T03:03:49.026Z,2.47
2022-12-22T03:06:34.561Z,3.05
2022-12-22T03:09:20.073Z,1.20
2022-12-22T03:12:05.334Z,1.55
2022-12-22T03:14:50.822Z,0.77
2022-12-22T03:17:36.174Z,1.92
2022-12-22T03:20:21.720Z,2.85
2022-12-22T03:23:07.128Z,2.13
2022-12-22T03:25:55.049Z,4.50
2022-12-22T03:28:27.663Z,1.52
2022-12-22T03:31:00.779Z,1.00
2022-12-22T03:33:29.427Z,0.77
2022-12-22T03:35:57.286Z,2.15
2022-12-22T03:38:25.176Z,1.42
2022-12-22T03:40:52.648Z,1.73
2022-12-22T03:43:37.994Z,2.10
2022-12-22T03:46:24.017Z,2.15
2022-12-22T03:49:10.043Z,1.25
2022-12-22T03:52:03.358Z,1.27
2022-12-22T03:54:30.326Z,0.57
2022-12-22T03:56:58.090Z,2.55
2022-12-22T03:59:25.080Z,2.28
2022-12-22T04:01:54.389Z,2.42
2022-12-22T04:04:25.128Z,0.50
2022-12-22T04:06:53.001Z,0.95
2022-12-22T04:09:20.153Z,2.20
2022-12-22T04:12:05.609Z,1.05
2022-12-22T04:14:34.763Z,2.33
2022-12-22T04:17:06.708Z,0.82
2022-12-22T04:19:33.932Z,1.17
2022-12-22T04:22:01.644Z,1.67
2022-12-22T04:24:28.717Z,1.27
2022-12-22T04:26:55.742Z,0.15
2022-12-22T04:29:22.780Z,0.75
2022-12-22T04:31:49.881Z,1.10
2022-12-22T04:34:16.919Z,1.25
2022-12-22T04:36:44.012Z,0.73
2022-12-22T04:39:11.077Z,0.90
2022-12-22T04:41:38.031Z,1.85
2022-12-22T04:44:05.120Z,0.80
2022-12-22T04:46:33.517Z,1.65
2022-12-22T04:49:00.875Z,0.73
2022-12-22T04:51:28.696Z,1.73
2022-12-22T04:53:56.175Z,0.43
2022-12-22T04:56:23.238Z,2.63
2022-12-22T04:58:50.233Z,0.45
2022-12-22T05:01:19.323Z,2.83
2022-12-22T05:03:47.001Z,2.08
2022-12-22T05:06:14.847Z,1.15
2022-12-22T05:08:42.492Z,2.55
2022-12-22T05:11:09.720Z,0.60
2022-12-22T05:13:36.811Z,0.98
2022-12-22T05:16:09.753Z,3.78
2022-12-22T05:18:38.437Z,0.70
2022-12-22T05:21:14.608Z,1.15
2022-12-22T05:23:42.087Z,2.83
2022-12-22T05:26:09.747Z,1.38
2022-12-22T05:28:37.110Z,2.88
2022-12-22T05:31:17.654Z,1.88
2022-12-22T05:33:45.195Z,2.10
2022-12-22T05:36:12.251Z,1.65
2022-12-22T05:38:40.170Z,3.60
2022-12-22T05:41:08.252Z,0.80
2022-12-22T05:43:36.140Z,2.58
2022-12-22T05:46:11.450Z,1.42
2022-12-22T05:48:40.195Z,4.43
2022-12-22T05:51:10.862Z,2.33
2022-12-22T05:53:38.706Z,1.25
2022-12-22T05:56:06.772Z,0.98
2022-12-22T05:58:35.085Z,0.73
2022-12-22T06:01:02.161Z,4.03
2022-12-22T06:03:30.488Z,0.77
2022-12-22T06:05:58.714Z,5.20
2022-12-22T06:08:26.764Z,3.22
2022-12-22T06:10:58.430Z,5.38
2022-12-22T06:13:26.341Z,0.90
2022-12-22T06:15:53.698Z,2.17
2022-12-22T06:18:20.768Z,2.08
2022-12-22T06:20:48.176Z,2.35
2022-12-22T06:27:40.731Z,2.28
2022-12-22T06:30:08.410Z,4.57
2022-12-22T06:32:39.613Z,11.23
2022-12-22T06:35:08.360Z,6.20
2022-12-22T06:37:35.474Z,3.88
2022-12-22T06:40:03.063Z,2.45
2022-12-22T06:42:48.503Z,3.80
2022-12-22T06:45:15.707Z,3.20
2022-12-22T06:47:42.687Z,2.42
2022-12-22T06:50:10.057Z,7.55
2022-12-22T06:52:37.096Z,4.35
2022-12-22T06:55:04.459Z,2.50
2022-12-22T06:57:31.604Z,3.42
2022-12-22T06:59:58.634Z,2.35
2022-12-22T07:02:25.979Z,5.20
2022-12-22T07:04:53.178Z,2.60
2022-12-22T07:07:20.187Z,5.45
2022-12-22T07:10:39.483Z,6.97
2022-12-22T07:13:19.460Z,4.45
2022-12-22T07:15:52.053Z,1.95
2022-12-22T07:18:24.793Z,4.05
2022-12-22T07:20:52.036Z,5.53
2022-12-22T07:23:19.004Z,6.60
2022-12-22T07:25:45.924Z,8.95
2022-12-22T07:28:18.399Z,4.25
2022-12-22T07:30:47.657Z,3.92
2022-12-22T07:33:14.537Z,2.35
2022-12-22T07:35:41.519Z,5.93
2022-12-22T07:38:08.510Z,2.28
2022-12-22T07:40:41.198Z,3.20
2022-12-22T07:43:08.665Z,5.97
2022-12-22T07:45:36.594Z,10.13
2022-12-22T07:48:27.462Z,6.35
2022-12-22T07:51:00.189Z,7.40
2022-12-22T07:53:27.375Z,6.13
2022-12-22T07:55:54.428Z,5.10
2022-12-22T07:58:21.384Z,3.63
2022-12-22T08:00:48.382Z,8.88
2022-12-22T08:03:15.468Z,9.25
2022-12-22T08:05:42.632Z,3.58
2022-12-22T08:08:09.579Z,4.85
2022-12-22T08:10:36.663Z,8.13
2022-12-22T08:13:03.713Z,4.65
2022-12-22T08:15:30.755Z,2.38
2022-12-22T08:17:57.728Z,8.55
2022-12-22T08:24:42.983Z,6.03
2022-12-22T08:27:19.564Z,4.13
2022-12-22T08:29:57.337Z,3.05
2022-12-22T08:32:24.555Z,7.43
2022-12-22T08:34:52.941Z,7.03
2022-12-22T08:37:23.972Z,7.13
2022-12-22T08:39:57.028Z,3.55
2022-12-22T08:42:25.533Z,4.63
2022-12-22T08:44:53.583Z,9.55
2022-12-22T08:47:21.625Z,3.65
2022-12-22T08:49:50.669Z,6.50
2022-12-22T08:52:19.497Z,4.90
2022-12-22T08:55:27.747Z,8.02
2022-12-22T08:57:56.391Z,12.57
2022-12-22T09:00:24.405Z,7.70
2022-12-22T09:02:51.777Z,4.55
2022-12-22T09:05:19.584Z,3.88
2022-12-22T09:07:48.530Z,2.15
2022-12-22T09:10:16.016Z,4.00
2022-12-22T09:12:43.077Z,4.18
2022-12-22T09:15:10.483Z,5.68
2022-12-22T09:17:37.933Z,6.88
2022-12-22T09:20:06.266Z,3.95
2022-12-22T09:22:35.775Z,4.10
2022-12-22T09:25:02.780Z,4.93
2022-12-22T09:27:30.813Z,2.58
2022-12-22T09:29:58.198Z,4.22
2022-12-22T09:32:25.234Z,6.35
2022-12-22T09:34:52.798Z,3.97
2022-12-22T09:37:19.762Z,6.18
2022-12-22T09:39:47.255Z,5.60
2022-12-22T09:42:18.632Z,4.72
2022-12-22T09:44:50.699Z,7.50
2022-12-22T09:47:33.362Z,5.57
2022-12-22T09:50:00.396Z,8.25
2022-12-22T09:52:35.423Z,11.32
2022-12-22T09:55:03.472Z,10.20
2022-12-22T09:57:32.898Z,3.40
2022-12-22T10:00:14.229Z,5.60
2022-12-22T10:03:23.970Z,6.88
2022-12-22T10:08:30.061Z,6.20
2022-12-22T10:10:57.480Z,9.48
2022-12-22T10:13:24.580Z,6.45
2022-12-22T10:15:53.257Z,6.53
2022-12-22T10:18:29.123Z,3.35
2022-12-22T10:21:10.016Z,5.72
2022-12-22T10:23:44.105Z,8.27
2022-12-22T10:26:31.939Z,5.75
2022-12-22T10:29:10.574Z,7.63
2022-12-22T10:31:59.197Z,8.00
2022-12-22T10:34:26.656Z,9.63
2022-12-22T10:36:59.223Z,5.80
2022-12-22T10:39:29.139Z,4.80
2022-12-22T10:42:08.179Z,4.90
2022-12-22T10:44:37.650Z,4.50
2022-12-22T10:47:26.743Z,8.38
2022-12-22T10:52:31.945Z,7.43
2022-12-22T10:55:17.902Z,12.20
2022-12-22T10:57:44.944Z,4.40
2022-12-22T11:00:38.821Z,5.32
2022-12-22T11:03:08.121Z,3.47
2022-12-22T11:05:35.341Z,4.00
2022-12-22T11:08:21.904Z,7.07
2022-12-22T11:10:59.443Z,7.28
2022-12-22T11:14:06.938Z,6.25
2022-12-22T11:16:45.873Z,6.55
2022-12-22T11:19:23.058Z,9.48
2022-12-22T11:22:03.364Z,1.80
2022-12-22T11:24:59.237Z,6.03
2022-12-22T11:28:04.330Z,6.32
2022-12-22T11:30:43.574Z,6.32
2022-12-22T11:33:42.981Z,5.05
2022-12-22T11:36:20.866Z,3.83
2022-12-22T11:39:12.450Z,2.20
2022-12-22T11:41:52.586Z,4.60
2022-12-22T11:44:45.539Z,2.45
2022-12-22T11:47:50.145Z,5.60
2022-12-22T11:50:59.083Z,3.53
2022-12-22T11:53:44.569Z,6.07
2022-12-22T11:56:29.298Z,2.70
2022-12-22T11:59:08.270Z,4.88
2022-12-22T12:01:47.413Z,3.67
2022-12-22T12:04:14.746Z,5.20
2022-12-22T12:06:59.768Z,5.30
2022-12-22T12:09:35.009Z,5.25
2022-12-22T12:12:17.484Z,4.22
2022-12-22T12:14:53.910Z,5.13
2022-12-22T12:17:50.929Z,3.63
2022-12-22T12:20:35.989Z,2.65
2022-12-22T12:23:32.334Z,6.50
2022-12-22T12:26:27.750Z,3.60
2022-12-22T12:29:07.233Z,5.88
2022-12-22T12:31:41.143Z,5.82
2022-12-22T12:34:14.697Z,4.38
2022-12-22T12:37:14.133Z,4.53
2022-12-22T12:40:16.268Z,8.70
2022-12-22T12:42:46.971Z,2.40
2022-12-22T12:45:33.198Z,1.35
2022-12-22T12:48:24.863Z,5.68
2022-12-22T12:50:56.871Z,4.25
2022-12-22T12:53:25.643Z,3.97
2022-12-22T12:55:54.302Z,2.65
2022-12-22T12:58:37.815Z,5.18
2022-12-22T13:01:12.277Z,2.28
2022-12-22T13:06:51.123Z,5.03
2022-12-22T13:12:40.950Z,4.30
2022-12-22T13:15:41.579Z,2.00
2022-12-22T13:18:24.024Z,5.20
2022-12-22T13:21:52.477Z,4.03
2022-12-22T13:24:25.846Z,3.60
2022-12-22T13:26:55.823Z,8.30
2022-12-22T13:29:23.004Z,7.55
2022-12-22T13:32:19.190Z,2.63
2022-12-22T13:35:29.059Z,3.35
2022-12-22T13:37:46.734Z,4.00
2022-12-22T13:40:31.141Z,4.25
2022-12-22T13:43:03.282Z,6.75
2022-12-22T13:45:52.769Z,4.45
2022-12-22T13:48:30.604Z,6.88
2022-12-22T13:51:06.349Z,6.30
2022-12-22T13:56:49.699Z,9.35
2022-12-22T13:59:36.403Z,2.67
2022-12-22T14:02:09.500Z,6.28
2022-12-22T14:04:38.247Z,6.13
2022-12-22T14:07:19.951Z,6.85
2022-12-22T14:09:49.266Z,5.75
2022-12-22T14:12:23.115Z,5.22
2022-12-22T14:14:52.775Z,7.32
2022-12-22T14:17:31.913Z,4.78
2022-12-22T14:20:01.536Z,6.53
2022-12-22T14:25:29.294Z,3.35
2022-12-22T14:27:57.482Z,4.07
2022-12-22T14:30:31.016Z,2.05
2022-12-22T14:33:23.462Z,5.53
2022-12-22T14:35:50.819Z,6.30
2022-12-22T14:38:26.533Z,3.53
2022-12-22T14:40:57.712Z,3.80
2022-12-22T14:43:31.538Z,6.78
2022-12-22T14:46:08.966Z,4.43
2022-12-22T14:48:44.881Z,4.50
2022-12-22T14:51:20.051Z,4.53
2022-12-22T14:53:57.232Z,4.00
2022-12-22T14:56:26.706Z,5.25
2022-12-22T14:59:09.501Z,5.93
2022-12-22T15:01:36.719Z,8.90
2022-12-22T15:04:19.142Z,8.02
2022-12-22T15:06:49.605Z,6.78
2022-12-22T15:09:16.557Z,6.07
2022-12-22T15:12:20.981Z,8.25
2022-12-22T15:14:49.133Z,7.07
2022-12-22T15:17:25.978Z,6.88
2022-12-22T15:19:57.957Z,10.68
2022-12-22T15:22:25.575Z,9.52
2022-12-22T15:24:52.769Z,13.18
2022-12-22T15:27:20.231Z,10.55
2022-12-22T15:29:48.036Z,7.30
2022-12-22T15:32:15.157Z,11.30
2022-12-22T15:34:42.533Z,9.23
2022-12-22T15:37:12.644Z,11.02
2022-12-22T15:39:40.558Z,13.25
2022-12-22T15:42:07.636Z,11.25
2022-12-22T15:44:38.698Z,9.95
2022-12-22T15:47:09.475Z,4.10
2022-12-22T15:49:36.629Z,11.60
2022-12-22T15:52:05.351Z,13.25
2022-12-22T15:54:35.596Z,8.25
2022-12-22T15:57:11.747Z,9.82
2022-12-22T15:59:40.376Z,12.07
2022-12-22T16:02:12.827Z,15.10
2022-12-22T16:04:40.056Z,9.40
2022-12-22T16:07:07.176Z,7.88
2022-12-22T16:09:42.870Z,6.90
2022-12-22T16:12:18.587Z,7.72
2022-12-22T16:15:13.567Z,11.55
2022-12-22T16:17:40.696Z,9.25
2022-12-22T16:20:09.213Z,10.93
2022-12-22T16:22:37.916Z,12.13
2022-12-22T16:25:08.179Z,11.00
2022-12-22T16:27:35.988Z,12.60
2022-12-22T16:30:03.765Z,16.00
2022-12-22T16:32:32.221Z,11.35
2022-12-22T16:35:11.530Z,6.60
2022-12-22T16:37:39.303Z,7.53
2022-12-22T16:40:08.088Z,12.23
2022-12-22T16:45:27.082Z,8.00
2022-12-22T16:47:55.274Z,12.95
2022-12-22T16:50:27.736Z,7.22
2022-12-22T16:52:54.749Z,11.68
2022-12-22T16:55:22.345Z,11.43
2022-12-22T16:57:49.410Z,14.48
2022-12-22T17:00:18.279Z,13.75
2022-12-22T17:02:50.490Z,10.57
2022-12-22T17:05:43.726Z,14.85
2022-12-22T17:08:34.594Z,17.58
2022-12-22T17:11:10.441Z,21.52
2022-12-22T17:13:38.363Z,15.02
2022-12-22T17:16:05.747Z,14.75
2022-12-22T17:18:33.426Z,13.10
2022-12-22T17:21:05.018Z,11.25
2022-12-22T17:23:39.091Z,7.45
2022-12-22T17:26:13.230Z,10.02
2022-12-22T17:28:40.678Z,10.85
2022-12-22T17:31:07.734Z,7.05
2022-12-22T17:33:34.772Z,7.90
2022-12-22T17:36:02.485Z,12.55
2022-12-22T17:38:30.031Z,13.13
2022-12-22T17:40:57.706Z,6.57
2022-12-22T17:43:24.866Z,12.57
2022-12-22T17:45:52.441Z,6.55
2022-12-22T17:48:19.388Z,7.03
2022-12-22T17:50:50.357Z,6.97
2022-12-22T17:53:21.300Z,10.75
2022-12-22T17:58:35.932Z,9.25
2022-12-22T18:01:02.878Z,9.50
2022-12-22T18:03:29.890Z,9.77
2022-12-22T18:05:56.943Z,13.35
2022-12-22T18:08:23.954Z,8.05
2022-12-22T18:10:51.018Z,7.15
2022-12-22T18:13:22.789Z,11.10
2022-12-22T18:15:49.878Z,5.93
2022-12-22T18:18:18.308Z,14.10
2022-12-22T18:21:06.385Z,12.23
2022-12-22T18:23:35.980Z,13.67
2022-12-22T18:26:05.068Z,9.97
2022-12-22T18:28:32.017Z,10.68
2022-12-22T18:30:59.192Z,11.52
2022-12-22T18:33:26.296Z,8.52
2022-12-22T18:35:59.377Z,11.40
2022-12-22T18:38:32.634Z,14.65
2022-12-22T18:41:00.262Z,16.35
2022-12-22T18:48:44.572Z,15.82
2022-12-22T18:51:23.442Z,12.20
2022-12-22T18:53:52.832Z,9.80
2022-12-22T18:56:20.602Z,13.20
2022-12-22T18:58:47.888Z,16.58
2022-12-22T19:01:22.021Z,23.30
2022-12-22T19:03:51.515Z,24.95
2022-12-22T19:06:22.041Z,10.32
2022-12-22T19:08:50.920Z,15.27
2022-12-22T19:11:23.623Z,21.63
2022-12-22T19:13:52.565Z,14.98
2022-12-22T19:16:26.180Z,15.18
2022-12-22T19:18:53.453Z,19.02
2022-12-22T19:21:20.869Z,13.75
2022-12-22T19:23:48.949Z,18.60
2022-12-22T19:26:23.550Z,18.85
2022-12-22T19:28:58.559Z,10.70
2022-12-22T19:31:29.217Z,3.92
2022-12-22T19:33:59.276Z,17.90
2022-12-22T19:37:33.565Z,8.23
2022-12-22T19:40:00.772Z,12.23
2022-12-22T19:42:27.949Z,13.27
2022-12-22T19:44:55.871Z,11.98
2022-12-22T19:47:24.500Z,14.80
2022-12-22T19:49:51.455Z,13.68
2022-12-22T19:52:19.356Z,11.05
2022-12-22T19:54:46.628Z,9.55
2022-12-22T19:57:20.565Z,15.27
2022-12-22T19:59:49.918Z,10.25
2022-12-22T20:02:30.366Z,13.55
2022-12-22T20:04:59.111Z,17.95
2022-12-22T20:07:28.205Z,8.90
2022-12-22T20:09:56.155Z,15.90
2022-12-22T20:12:38.477Z,18.75
2022-12-22T20:15:18.701Z,19.38
2022-12-22T20:17:46.601Z,12.65
2022-12-22T20:20:27.065Z,10.77
2022-12-22T20:23:03.308Z,16.40
2022-12-22T20:25:37.568Z,12.68
2022-12-22T20:28:15.121Z,17.70
2022-12-22T20:30:43.895Z,18.90
2022-12-22T20:33:12.625Z,21.17
2022-12-22T20:35:42.062Z,14.63
2022-12-22T20:38:18.868Z,11.60
2022-12-22T20:40:47.365Z,8.48
2022-12-22T20:43:20.698Z,13.98
2022-12-22T20:45:50.224Z,17.10
2022-12-22T20:48:29.810Z,19.63
2022-12-22T20:50:57.060Z,19.42
2022-12-22T20:53:24.251Z,12.63
2022-12-22T20:55:51.307Z,20.20
2022-12-22T20:58:23.807Z,18.55
2022-12-22T21:00:54.684Z,21.92
2022-12-22T21:03:21.833Z,15.95
2022-12-22T21:05:49.461Z,12.45
2022-12-22T21:08:23.025Z,20.13
2022-12-22T21:10:52.268Z,13.27
2022-12-22T21:13:19.850Z,15.63
2022-12-22T21:15:50.192Z,10.82
2022-12-22T21:18:20.287Z,11.70
2022-12-22T21:20:48.898Z,8.80
2022-12-22T21:23:19.093Z,16.83
2022-12-22T21:25:51.769Z,15.30
2022-12-22T21:28:38.601Z,17.13
2022-12-22T21:31:05.962Z,13.30
2022-12-22T21:33:33.014Z,14.70
2022-12-22T21:36:02.910Z,20.42
2022-12-22T21:38:32.772Z,8.35
2022-12-22T21:41:00.155Z,18.98
2022-12-22T21:43:27.197Z,9.50
2022-12-22T21:45:54.323Z,14.40
2022-12-22T21:48:21.701Z,6.55
2022-12-22T21:50:50.419Z,10.38
2022-12-22T21:53:22.509Z,13.25
2022-12-22T21:55:50.131Z,18.23
2022-12-22T21:58:17.730Z,13.93
2022-12-22T22:00:48.532Z,16.50
2022-12-22T22:03:16.033Z,12.98
2022-12-22T22:05:43.220Z,9.57
2022-12-22T22:08:11.909Z,13.90
2022-12-22T22:10:43.543Z,9.13
2022-12-22T22:13:16.970Z,9.15
2022-12-22T22:15:44.069Z,15.13
2022-12-22T22:18:19.903Z,4.88
2022-12-22T22:20:48.084Z,15.30
2022-12-22T22:23:15.364Z,19.50
2022-12-22T22:25:42.411Z,12.63
2022-12-22T22:28:11.536Z,8.68
2022-12-22T22:30:40.644Z,9.93
2022-12-22T22:33:07.591Z,6.40
2022-12-22T22:35:34.628Z,13.27
2022-12-22T22:38:01.634Z,12.57
2022-12-22T22:40:29.048Z,9.27
2022-12-22T22:42:57.253Z,5.45
2022-12-22T22:46:15.169Z,5.88
2022-12-22T22:48:42.719Z,4.93
2022-12-22T22:51:10.767Z,16.17
2022-12-22T22:53:37.733Z,4.93
2022-12-22T22:56:05.108Z,11.93
2022-12-22T22:58:32.096Z,4.95
2022-12-22T23:01:07.292Z,14.18
2022-12-22T23:07:53.466Z,7.75
2022-12-22T23:10:20.545Z,4.20
2022-12-22T23:12:47.519Z,8.02
2022-12-22T23:15:14.615Z,4.95
2022-12-22T23:17:41.673Z,8.13
2022-12-22T23:20:09.149Z,8.50
2022-12-22T23:22:36.125Z,7.32
2022-12-22T23:25:03.290Z,8.77
2022-12-22T23:27:30.755Z,4.75
2022-12-22T23:29:57.791Z,11.90
2022-12-22T23:32:24.973Z,7.97
2022-12-22T23:34:51.909Z,6.75
2022-12-22T23:37:19.876Z,7.90
2022-12-22T23:39:47.139Z,5.75
2022-12-22T23:42:14.286Z,7.63
2022-12-22T23:44:42.051Z,3.67
2022-12-22T23:47:09.466Z,11.55
2022-12-22T23:53:57.870Z,9.30
2022-12-22T23:56:25.054Z,6.43
2022-12-22T23:58:54.841Z,7.70
